createdAt,value
2023-01-19T00:00:40.401Z,0.96
2023-01-19T00:03:25.845Z,0.97
2023-01-19T00:06:11.994Z,0.96
2023-01-19T00:08:57.133Z,0.99
2023-01-19T00:11:42.368Z,1.01
2023-01-19T00:14:27.502Z,0.98
2023-01-19T00:17:13.003Z,0.96
2023-01-19T00:19:58.157Z,0.91
2023-01-19T00:22:43.455Z,0.92
2023-01-19T00:25:29.185Z,0.91
2023-01-19T00:28:16.935Z,0.88
2023-01-19T00:31:05.195Z,0.91
2023-01-19T00:33:52.439Z,0.92
2023-01-19T00:36:37.846Z,0.91
2023-01-19T00:39:23.228Z,0.91
2023-01-19T00:42:31.043Z,0.88
2023-01-19T00:45:23.561Z,0.89
2023-01-19T00:48:09.077Z,0.89
2023-01-19T00:50:54.289Z,0.88
2023-01-19T00:53:40.064Z,0.80
2023-01-19T00:56:25.504Z,0.82
2023-01-19T00:59:14.546Z,0.80
2023-01-19T01:02:00.031Z,0.73
2023-01-19T01:04:54.797Z,0.79
2023-01-19T01:07:43.551Z,0.76
2023-01-19T01:10:29.960Z,0.69
2023-01-19T01:13:25.414Z,0.64
2023-01-19T01:16:15.226Z,0.66
2023-01-19T01:19:00.658Z,0.68
2023-01-19T01:21:45.842Z,0.72
2023-01-19T01:24:32.049Z,0.71
2023-01-19T01:27:17.308Z,0.65
2023-01-19T01:30:02.737Z,0.56
2023-01-19T01:32:47.766Z,0.51
2023-01-19T01:35:33.873Z,0.43
2023-01-19T01:38:19.047Z,0.39
2023-01-19T01:41:04.805Z,0.38
2023-01-19T01:43:58.447Z,0.35
2023-01-19T01:46:43.542Z,0.33
2023-01-19T01:49:30.387Z,0.34
2023-01-19T01:52:17.099Z,0.32
2023-01-19T01:55:06.847Z,0.32
2023-01-19T01:57:57.380Z,0.35
2023-01-19T02:01:02.037Z,0.31
2023-01-19T02:03:47.558Z,0.27
2023-01-19T02:06:34.539Z,0.24
2023-01-19T02:09:38.672Z,0.19
2023-01-19T02:12:43.276Z,0.15
2023-01-19T02:15:28.402Z,0.11
2023-01-19T02:18:14.118Z,0.09
2023-01-19T02:21:18.887Z,0.09
2023-01-19T02:24:04.596Z,0.09
2023-01-19T02:26:51.032Z,0.07
2023-01-19T02:29:36.383Z,0.05
2023-01-19T02:32:21.582Z,0.05
2023-01-19T02:35:07.345Z,0.04
2023-01-19T02:37:53.470Z,0.03
2023-01-19T02:40:41.800Z,0.04
2023-01-19T02:43:30.071Z,0.06
2023-01-19T02:46:16.043Z,0.07
2023-01-19T02:49:01.737Z,0.05
2023-01-19T02:51:47.156Z,0.02
2023-01-19T02:55:09.899Z,0.01
2023-01-19T02:58:36.993Z,-0.02
2023-01-19T03:01:47.878Z,-0.13
2023-01-19T03:04:57.847Z,-0.15
2023-01-19T03:08:02.312Z,-0.26
2023-01-19T03:10:53.911Z,-0.31
2023-01-19T03:14:01.972Z,-0.34
2023-01-19T03:16:55.932Z,-0.34
2023-01-19T03:19:43.542Z,-0.32
2023-01-19T03:22:29.906Z,-0.29
2023-01-19T03:25:17.641Z,-0.26
2023-01-19T03:28:04.202Z,-0.28
2023-01-19T03:30:56.240Z,-0.28
2023-01-19T03:33:46.728Z,-0.27
2023-01-19T03:36:40.455Z,-0.36
2023-01-19T03:39:27.690Z,-0.40
2023-01-19T03:42:16.452Z,-0.38
2023-01-19T03:45:02.174Z,-0.35
2023-01-19T03:47:48.570Z,-0.37
2023-01-19T03:50:33.913Z,-0.38
2023-01-19T03:53:21.833Z,-0.40
2023-01-19T03:56:23.772Z,-0.41
2023-01-19T03:59:09.205Z,-0.39
2023-01-19T04:01:56.906Z,-0.43
2023-01-19T04:04:46.228Z,-0.43
2023-01-19T04:07:32.037Z,-0.48
2023-01-19T04:10:18.336Z,-0.53
2023-01-19T04:13:04.732Z,-0.59
2023-01-19T04:15:50.151Z,-0.61
2023-01-19T04:18:35.875Z,-0.66
2023-01-19T04:21:21.117Z,-0.64
2023-01-19T04:24:06.954Z,-0.65
2023-01-19T04:26:53.464Z,-0.71
2023-01-19T04:29:38.895Z,-0.79
2023-01-19T04:32:24.414Z,-0.79
2023-01-19T04:35:09.955Z,-0.83
2023-01-19T04:37:55.046Z,-0.85
2023-01-19T04:40:40.557Z,-0.89
2023-01-19T04:43:25.724Z,-0.90
2023-01-19T04:46:10.932Z,-0.93
2023-01-19T04:48:56.487Z,-0.94
2023-01-19T04:51:41.958Z,-1.05
2023-01-19T04:54:27.608Z,-1.09
2023-01-19T04:57:13.074Z,-1.15
2023-01-19T04:59:58.539Z,-1.15
2023-01-19T05:02:45.238Z,-1.13
2023-01-19T05:05:30.549Z,-1.11
2023-01-19T05:08:15.864Z,-1.06
2023-01-19T05:11:01.279Z,-1.11
2023-01-19T05:13:46.552Z,-1.13
2023-01-19T05:16:31.817Z,-1.11
2023-01-19T05:19:17.190Z,-1.16
2023-01-19T05:22:04.340Z,-1.18
2023-01-19T05:24:49.901Z,-1.16
2023-01-19T05:27:36.350Z,-1.17
2023-01-19T05:30:21.634Z,-1.15
2023-01-19T05:33:06.709Z,-1.13
2023-01-19T05:35:53.376Z,-1.12
2023-01-19T05:38:38.400Z,-1.15
2023-01-19T05:41:23.980Z,-1.20
2023-01-19T05:44:09.820Z,-1.24
2023-01-19T05:46:55.362Z,-1.28
2023-01-19T05:49:40.794Z,-1.28
2023-01-19T05:52:25.898Z,-1.28
2023-01-19T05:55:11.104Z,-1.21
2023-01-19T05:57:56.454Z,-1.25
2023-01-19T06:00:41.598Z,-1.22
2023-01-19T06:03:26.955Z,-1.26
2023-01-19T06:06:14.874Z,-1.29
2023-01-19T06:09:00.332Z,-1.30
2023-01-19T06:11:46.084Z,-1.32
2023-01-19T06:14:32.411Z,-1.35
2023-01-19T06:17:18.211Z,-1.38
2023-01-19T06:20:05.324Z,-1.37
2023-01-19T06:22:50.470Z,-1.42
2023-01-19T06:25:35.971Z,-1.45
2023-01-19T06:28:22.159Z,-1.46
2023-01-19T06:31:07.546Z,-1.45
2023-01-19T06:33:52.901Z,-1.44
2023-01-19T06:36:38.669Z,-1.36
2023-01-19T06:39:24.522Z,-1.34
2023-01-19T06:42:09.839Z,-1.32
2023-01-19T06:44:55.256Z,-1.30
2023-01-19T06:47:40.734Z,-1.27
2023-01-19T06:50:26.606Z,-1.25
2023-01-19T06:53:12.630Z,-1.28
2023-01-19T06:56:00.925Z,-1.30
2023-01-19T06:58:50.437Z,-1.30
2023-01-19T07:01:36.158Z,-1.30
2023-01-19T07:04:22.230Z,-1.27
2023-01-19T07:07:07.765Z,-1.26
2023-01-19T07:09:54.047Z,-1.24
2023-01-19T07:12:39.581Z,-1.23
2023-01-19T07:15:24.761Z,-1.22
2023-01-19T07:18:10.357Z,-1.25
2023-01-19T07:20:57.657Z,-1.29
2023-01-19T07:23:43.387Z,-1.26
2023-01-19T07:26:29.029Z,-1.23
2023-01-19T07:29:14.527Z,-1.19
2023-01-19T07:32:00.047Z,-1.13
2023-01-19T07:34:45.394Z,-1.14
2023-01-19T07:37:30.687Z,-1.09
2023-01-19T07:40:16.363Z,-1.06
2023-01-19T07:43:02.040Z,-1.08
2023-01-19T07:45:47.525Z,-1.10
2023-01-19T07:48:32.826Z,-1.14
2023-01-19T07:51:18.790Z,-1.14
2023-01-19T07:54:04.293Z,-1.08
2023-01-19T07:56:49.475Z,-1.00
2023-01-19T07:59:34.963Z,-0.94
2023-01-19T08:02:20.322Z,-0.93
2023-01-19T08:05:06.043Z,-0.86
2023-01-19T08:07:53.992Z,-0.82
2023-01-19T08:10:39.280Z,-0.77
2023-01-19T08:13:25.087Z,-0.70
2023-01-19T08:16:10.781Z,-0.66
2023-01-19T08:18:56.146Z,-0.57
2023-01-19T08:21:41.377Z,-0.52
2023-01-19T08:24:28.587Z,-0.49
2023-01-19T08:27:13.974Z,-0.44
2023-01-19T08:29:59.446Z,-0.46
2023-01-19T08:32:44.617Z,-0.46
2023-01-19T08:35:31.803Z,-0.40
2023-01-19T08:38:17.528Z,-0.40
2023-01-19T08:41:02.850Z,-0.38
2023-01-19T08:43:49.315Z,-0.34
2023-01-19T08:46:34.753Z,-0.25
2023-01-19T08:49:20.628Z,-0.27
2023-01-19T08:52:06.039Z,-0.24
2023-01-19T08:54:51.761Z,-0.13
2023-01-19T08:57:37.239Z,-0.06
2023-01-19T09:00:22.903Z,-0.07
2023-01-19T09:03:12.063Z,-0.02
2023-01-19T09:05:57.417Z,0.01
2023-01-19T09:08:43.478Z,0.08
2023-01-19T09:11:28.836Z,0.13
2023-01-19T09:14:14.048Z,0.24
2023-01-19T09:16:59.250Z,0.35
2023-01-19T09:19:44.560Z,0.39
2023-01-19T09:22:29.797Z,0.44
2023-01-19T09:25:15.037Z,0.48
2023-01-19T09:28:00.844Z,0.53
2023-01-19T09:30:46.665Z,0.58
2023-01-19T09:33:35.793Z,0.66
2023-01-19T09:36:20.907Z,1.19
2023-01-19T09:39:06.285Z,2.04
2023-01-19T09:42:02.721Z,2.55
2023-01-19T09:44:50.415Z,2.71
2023-01-19T09:47:37.507Z,2.42
2023-01-19T09:50:34.312Z,2.08
2023-01-19T09:53:55.556Z,2.99
2023-01-19T09:56:42.364Z,3.15
2023-01-19T09:59:33.486Z,2.92
2023-01-19T10:02:33.243Z,2.62
2023-01-19T10:05:51.133Z,2.43
2023-01-19T10:09:09.174Z,2.29
2023-01-19T10:12:12.500Z,2.21
2023-01-19T10:15:19.413Z,2.16
2023-01-19T10:18:33.106Z,2.12
2023-01-19T10:21:26.392Z,2.13
2023-01-19T10:24:11.826Z,2.16
2023-01-19T10:26:57.449Z,2.25
2023-01-19T10:29:42.812Z,2.29
2023-01-19T10:32:32.819Z,2.31
2023-01-19T10:35:23.438Z,2.37
2023-01-19T10:38:14.475Z,2.39
2023-01-19T10:41:17.233Z,2.45
2023-01-19T10:44:05.311Z,2.49
2023-01-19T10:46:52.134Z,2.45
2023-01-19T10:49:40.443Z,2.46
2023-01-19T10:52:33.973Z,2.53
2023-01-19T10:55:40.490Z,2.85
2023-01-19T10:58:35.223Z,3.60
2023-01-19T11:01:28.290Z,5.14
2023-01-19T11:04:29.543Z,5.35
2023-01-19T11:07:28.744Z,4.90
2023-01-19T11:10:24.098Z,4.55
2023-01-19T11:13:15.777Z,4.23
2023-01-19T11:16:08.299Z,3.92
2023-01-19T11:18:55.906Z,3.96
2023-01-19T11:21:41.349Z,4.27
2023-01-19T11:24:27.039Z,4.78
2023-01-19T11:27:17.127Z,4.84
2023-01-19T11:30:10.375Z,4.52
2023-01-19T11:32:56.288Z,4.25
2023-01-19T11:35:42.237Z,4.04
2023-01-19T11:38:27.547Z,3.99
2023-01-19T11:41:23.419Z,3.96
2023-01-19T11:44:22.639Z,3.97
2023-01-19T11:47:18.955Z,4.04
2023-01-19T11:50:33.487Z,4.11
2023-01-19T11:53:24.307Z,4.04
2023-01-19T11:56:15.892Z,3.99
2023-01-19T11:59:09.549Z,3.99
2023-01-19T12:01:59.128Z,4.08
2023-01-19T12:04:46.717Z,4.09
2023-01-19T12:07:36.255Z,4.06
2023-01-19T12:10:27.357Z,4.03
2023-01-19T12:13:32.710Z,4.02
2023-01-19T12:16:21.785Z,3.94
2023-01-19T12:19:16.189Z,3.99
2023-01-19T12:22:03.998Z,3.93
2023-01-19T12:24:58.184Z,3.96
2023-01-19T12:27:45.519Z,3.97
2023-01-19T12:30:30.789Z,4.04
2023-01-19T12:33:21.952Z,4.12
2023-01-19T12:36:10.255Z,4.09
2023-01-19T12:38:56.812Z,4.05
2023-01-19T12:41:43.181Z,4.07
2023-01-19T12:44:31.057Z,4.02
2023-01-19T12:47:16.563Z,3.95
2023-01-19T12:50:07.352Z,3.94
2023-01-19T12:52:59.795Z,4.00
2023-01-19T12:55:46.740Z,4.09
2023-01-19T12:58:33.729Z,4.14
2023-01-19T13:01:21.528Z,4.17
2023-01-19T13:04:30.252Z,4.13
2023-01-19T13:07:18.014Z,4.14
2023-01-19T13:10:41.849Z,4.16
2023-01-19T13:14:04.422Z,4.18
2023-01-19T13:17:00.270Z,4.16
2023-01-19T13:19:51.255Z,4.12
2023-01-19T13:22:49.821Z,4.08
2023-01-19T13:25:36.182Z,4.08
2023-01-19T13:28:30.724Z,3.98
2023-01-19T13:31:17.140Z,3.92
2023-01-19T13:34:04.036Z,3.79
2023-01-19T13:36:52.796Z,3.74
2023-01-19T13:39:44.520Z,3.68
2023-01-19T13:42:37.937Z,3.65
2023-01-19T13:45:37.080Z,3.57
2023-01-19T13:48:24.653Z,3.49
2023-01-19T13:51:18.699Z,3.45
2023-01-19T13:54:05.642Z,3.50
2023-01-19T13:56:51.153Z,3.51
2023-01-19T13:59:36.727Z,3.48
2023-01-19T14:02:22.851Z,3.36
2023-01-19T14:05:20.604Z,3.32
2023-01-19T14:08:11.499Z,3.12
2023-01-19T14:10:56.567Z,2.95
2023-01-19T14:13:46.358Z,2.92
2023-01-19T14:16:31.964Z,2.91
2023-01-19T14:19:17.528Z,2.87
2023-01-19T14:22:04.519Z,2.84
2023-01-19T14:24:50.045Z,2.82
2023-01-19T14:27:35.370Z,2.78
2023-01-19T14:30:21.748Z,2.74
2023-01-19T14:33:32.501Z,2.66
2023-01-19T14:36:39.544Z,2.59
2023-01-19T14:39:28.729Z,2.53
2023-01-19T14:42:23.863Z,2.49
2023-01-19T14:45:15.717Z,2.47
2023-01-19T14:48:05.481Z,2.46
2023-01-19T14:51:03.752Z,2.50
2023-01-19T14:53:58.865Z,2.50
2023-01-19T14:56:44.416Z,2.51
2023-01-19T14:59:29.998Z,2.55
2023-01-19T15:02:18.405Z,2.58
2023-01-19T15:05:03.954Z,2.52
2023-01-19T15:07:49.108Z,2.51
2023-01-19T15:10:36.121Z,2.49
2023-01-19T15:13:23.709Z,2.48
2023-01-19T15:16:09.039Z,2.55
2023-01-19T15:18:54.604Z,2.56
2023-01-19T15:21:42.096Z,2.55
2023-01-19T15:24:27.369Z,2.53
2023-01-19T15:27:12.881Z,2.50
2023-01-19T15:29:59.664Z,2.49
2023-01-19T15:32:45.432Z,2.50
2023-01-19T15:35:31.082Z,2.54
2023-01-19T15:38:16.476Z,2.52
2023-01-19T15:41:01.636Z,2.56
2023-01-19T15:43:48.036Z,2.62
2023-01-19T15:46:33.499Z,2.66
2023-01-19T15:49:19.010Z,2.64
2023-01-19T15:52:04.395Z,2.62
2023-01-19T15:54:50.553Z,2.58
2023-01-19T15:57:35.918Z,2.54
2023-01-19T16:00:22.391Z,2.48
2023-01-19T16:03:08.231Z,2.48
2023-01-19T16:05:53.369Z,2.46
2023-01-19T16:08:39.172Z,2.37
2023-01-19T16:11:24.537Z,2.35
2023-01-19T16:14:10.352Z,2.34
2023-01-19T16:16:59.168Z,2.33
2023-01-19T16:19:44.801Z,2.28
2023-01-19T16:22:30.225Z,2.24
2023-01-19T16:25:15.617Z,2.25
2023-01-19T16:28:00.995Z,2.26
2023-01-19T16:30:46.418Z,2.22
2023-01-19T16:33:31.857Z,2.26
2023-01-19T16:36:23.031Z,2.26
2023-01-19T16:39:11.680Z,2.30
2023-01-19T16:41:56.875Z,2.33
2023-01-19T16:48:00.458Z,2.36
2023-01-19T16:50:57.903Z,2.33
2023-01-19T16:53:43.784Z,2.33
2023-01-19T16:56:29.152Z,2.34
2023-01-19T16:59:16.155Z,2.37
2023-01-19T17:02:02.659Z,2.31
2023-01-19T17:04:48.283Z,2.28
2023-01-19T17:07:33.309Z,2.27
2023-01-19T17:10:19.004Z,2.26
2023-01-19T17:13:04.399Z,2.30
2023-01-19T17:15:49.979Z,2.33
2023-01-19T17:18:37.883Z,2.37
2023-01-19T17:21:23.753Z,2.42
2023-01-19T17:24:12.436Z,2.47
2023-01-19T17:26:58.432Z,2.50
2023-01-19T17:29:43.808Z,2.54
2023-01-19T17:32:29.759Z,2.58
2023-01-19T17:35:15.154Z,2.59
2023-01-19T17:38:00.770Z,2.56
2023-01-19T17:40:46.534Z,2.52
2023-01-19T17:43:31.913Z,2.47
2023-01-19T17:46:19.107Z,2.47
2023-01-19T17:49:06.504Z,2.45
2023-01-19T17:51:53.670Z,2.48
2023-01-19T17:54:39.211Z,2.52
2023-01-19T17:57:24.761Z,2.56
2023-01-19T18:00:10.866Z,2.60
2023-01-19T18:02:58.956Z,2.60
2023-01-19T18:05:52.950Z,2.65
2023-01-19T18:08:40.020Z,2.68
2023-01-19T18:11:26.785Z,2.73
2023-01-19T18:14:11.924Z,2.77
2023-01-19T18:16:57.428Z,2.85
2023-01-19T18:19:43.029Z,2.89
2023-01-19T18:22:28.344Z,2.88
2023-01-19T18:25:13.540Z,2.87
2023-01-19T18:27:58.816Z,2.88
2023-01-19T18:30:44.159Z,2.92
2023-01-19T18:33:31.266Z,2.92
2023-01-19T18:36:17.857Z,2.91
2023-01-19T18:39:04.154Z,2.92
2023-01-19T18:41:49.928Z,2.91
2023-01-19T18:44:35.322Z,2.90
2023-01-19T18:47:20.395Z,2.89
2023-01-19T18:50:06.358Z,2.86
2023-01-19T18:52:52.728Z,2.83
2023-01-19T18:55:38.067Z,2.79
2023-01-19T18:58:24.240Z,2.80
2023-01-19T19:01:23.087Z,2.79
2023-01-19T19:04:14.194Z,2.81
2023-01-19T19:06:59.610Z,2.84
2023-01-19T19:09:44.911Z,2.85
2023-01-19T19:12:30.766Z,2.85
2023-01-19T19:15:16.687Z,2.88
2023-01-19T19:18:02.231Z,2.83
2023-01-19T19:20:47.419Z,2.83
2023-01-19T19:23:33.366Z,2.90
2023-01-19T19:26:18.579Z,2.93
2023-01-19T19:29:04.374Z,2.95
2023-01-19T19:31:49.620Z,2.94
2023-01-19T19:34:34.772Z,2.97
2023-01-19T19:37:20.045Z,2.96
2023-01-19T19:40:05.847Z,2.98
2023-01-19T19:42:55.842Z,3.00
2023-01-19T19:45:42.127Z,3.01
2023-01-19T19:48:28.285Z,3.01
2023-01-19T19:51:19.667Z,3.05
2023-01-19T19:54:04.941Z,3.10
2023-01-19T19:56:52.094Z,3.13
2023-01-19T19:59:37.571Z,3.12
2023-01-19T20:02:22.842Z,3.08
2023-01-19T20:05:08.406Z,3.07
2023-01-19T20:07:53.763Z,3.06
2023-01-19T20:10:39.205Z,3.07
2023-01-19T20:13:27.320Z,3.05
2023-01-19T20:16:15.403Z,2.99
2023-01-19T20:19:00.442Z,2.96
2023-01-19T20:21:45.752Z,2.96
2023-01-19T20:24:31.019Z,2.96
2023-01-19T20:27:16.212Z,3.01
2023-01-19T20:30:02.064Z,3.02
2023-01-19T20:32:47.301Z,3.05
2023-01-19T20:35:35.258Z,3.03
2023-01-19T20:38:20.663Z,3.02
2023-01-19T20:41:07.811Z,3.07
2023-01-19T20:43:53.074Z,3.02
2023-01-19T20:46:38.402Z,2.97
2023-01-19T20:49:32.883Z,2.93
2023-01-19T20:52:18.265Z,2.89
2023-01-19T20:55:03.620Z,2.91
2023-01-19T20:57:48.640Z,2.91
2023-01-19T21:00:34.583Z,2.96
2023-01-19T21:03:20.113Z,2.94
2023-01-19T21:06:05.846Z,2.94
2023-01-19T21:08:51.524Z,2.97
2023-01-19T21:11:38.819Z,2.97
2023-01-19T21:14:23.934Z,2.97
2023-01-19T21:17:09.421Z,2.98
2023-01-19T21:19:57.932Z,2.98
2023-01-19T21:22:43.229Z,2.98
2023-01-19T21:25:28.398Z,3.00
2023-01-19T21:28:17.808Z,3.02
2023-01-19T21:31:12.848Z,3.04
2023-01-19T21:33:58.527Z,3.05
2023-01-19T21:36:44.802Z,3.07
2023-01-19T21:39:30.442Z,3.10
2023-01-19T21:42:15.856Z,3.10
2023-01-19T21:45:01.115Z,3.12
2023-01-19T21:47:46.412Z,3.14
2023-01-19T21:50:31.859Z,3.12
2023-01-19T21:53:16.951Z,3.13
2023-01-19T21:56:02.258Z,3.16
2023-01-19T21:58:47.752Z,3.16
2023-01-19T22:01:34.060Z,3.19
2023-01-19T22:04:19.184Z,3.22
2023-01-19T22:07:05.080Z,3.26
2023-01-19T22:09:51.397Z,3.30
2023-01-19T22:12:39.353Z,3.26
2023-01-19T22:15:24.728Z,3.25
2023-01-19T22:18:10.787Z,3.30
2023-01-19T22:20:56.098Z,3.34
2023-01-19T22:23:42.263Z,3.32
2023-01-19T22:26:29.343Z,3.32
2023-01-19T22:29:14.664Z,3.32
2023-01-19T22:31:59.855Z,3.31
2023-01-19T22:34:45.126Z,3.31
2023-01-19T22:37:35.145Z,3.33
2023-01-19T22:40:20.210Z,3.31
2023-01-19T22:43:05.807Z,3.30
2023-01-19T22:45:50.880Z,3.31
2023-01-19T22:48:36.687Z,3.33
2023-01-19T22:51:23.696Z,3.36
2023-01-19T22:54:09.241Z,3.39
2023-01-19T22:56:54.806Z,3.41
2023-01-19T22:59:39.845Z,3.39
2023-01-19T23:02:25.295Z,3.38
2023-01-19T23:05:11.084Z,3.39
2023-01-19T23:07:56.601Z,3.45
2023-01-19T23:10:42.015Z,3.47
2023-01-19T23:13:27.556Z,3.47
2023-01-19T23:16:12.979Z,3.47
2023-01-19T23:18:58.796Z,3.50
2023-01-19T23:21:45.123Z,3.51
2023-01-19T23:24:30.735Z,3.51
2023-01-19T23:27:15.947Z,3.53
2023-01-19T23:30:01.185Z,3.52
2023-01-19T23:32:48.128Z,3.53
2023-01-19T23:35:35.106Z,3.54
2023-01-19T23:38:22.422Z,3.56
2023-01-19T23:41:08.607Z,3.58
2023-01-19T23:43:54.551Z,3.56
2023-01-19T23:46:40.113Z,3.60
2023-01-19T23:49:25.571Z,3.62
2023-01-19T23:52:10.760Z,3.56
2023-01-19T23:54:56.323Z,3.47
2023-01-19T23:57:41.769Z,3.42
